sensor_id;sensor_type;location;lat;lon;timestamp;P1;durP1;ratioP1;P2;durP2;ratioP2
12177;SDS011;6152;48.728;9.256;2023-11-21T00:01:57;4.70;;;1.98;;
12177;SDS011;6152;48.728;9.256;2023-11-21T00:04:23;3.53;;;1.63;;
12177;SDS011;6152;48.728;9.256;2023-11-21T00:06:50;4.40;;;1.52;;
12177;SDS011;6152;48.728;9.256;2023-11-21T00:09:16;8.38;;;3.08;;
12177;SDS011;6152;48.728;9.256;2023-11-21T00:11:43;3.80;;;1.50;;
12177;SDS011;6152;48.728;9.256;2023-11-21T00:14:13;5.93;;;1.30;;
12177;SDS011;6152;48.728;9.256;2023-11-21T00:16:40;4.20;;;1.35;;
12177;SDS011;6152;48.728;9.256;2023-11-21T00:19:06;3.17;;;1.02;;
12177;SDS011;6152;48.728;9.256;2023-11-21T00:21:32;6.00;;;1.60;;
12177;SDS011;6152;48.728;9.256;2023-11-21T00:23:59;5.45;;;1.70;;
12177;SDS011;6152;48.728;9.256;2023-11-21T00:26:25;5.78;;;1.58;;
12177;SDS011;6152;48.728;9.256;2023-11-21T00:28:51;2.80;;;1.33;;
12177;SDS011;6152;48.728;9.256;2023-11-21T00:31:17;3.83;;;1.00;;
12177;SDS011;6152;48.728;9.256;2023-11-21T00:33:43;4.72;;;1.55;;
12177;SDS011;6152;48.728;9.256;2023-11-21T00:36:09;4.00;;;1.30;;
12177;SDS011;6152;48.728;9.256;2023-11-21T00:38:36;4.78;;;1.50;;
12177;SDS011;6152;48.728;9.256;2023-11-21T00:41:05;4.25;;;1.27;;
12177;SDS011;6152;48.728;9.256;2023-11-21T00:43:31;3.67;;;1.70;;
12177;SDS011;6152;48.728;9.256;2023-11-21T00:46:03;4.78;;;2.00;;
12177;SDS011;6152;48.728;9.256;2023-11-21T00:48:32;3.80;;;1.45;;
12177;SDS011;6152;48.728;9.256;2023-11-21T00:50:58;3.63;;;1.23;;
12177;SDS011;6152;48.728;9.256;2023-11-21T00:53:25;4.68;;;1.20;;
12177;SDS011;6152;48.728;9.256;2023-11-21T00:55:51;6.95;;;1.33;;
12177;SDS011;6152;48.728;9.256;2023-11-21T00:58:22;4.22;;;1.20;;
12177;SDS011;6152;48.728;9.256;2023-11-21T01:00:48;3.35;;;0.93;;
12177;SDS011;6152;48.728;9.256;2023-11-21T01:03:15;6.35;;;1.35;;
12177;SDS011;6152;48.728;9.256;2023-11-21T01:05:41;4.05;;;0.95;;
12177;SDS011;6152;48.728;9.256;2023-11-21T01:08:07;1.15;;;0.95;;
12177;SDS011;6152;48.728;9.256;2023-11-21T01:10:33;2.72;;;0.90;;
12177;SDS011;6152;48.728;9.256;2023-11-21T01:13:00;2.65;;;0.90;;
12177;SDS011;6152;48.728;9.256;2023-11-21T01:15:26;2.22;;;0.80;;
12177;SDS011;6152;48.728;9.256;2023-11-21T01:17:53;2.75;;;1.00;;
12177;SDS011;6152;48.728;9.256;2023-11-21T01:20:19;3.22;;;0.95;;
12177;SDS011;6152;48.728;9.256;2023-11-21T01:22:45;2.03;;;0.80;;
12177;SDS011;6152;48.728;9.256;2023-11-21T01:25:14;2.78;;;1.10;;
12177;SDS011;6152;48.728;9.256;2023-11-21T01:27:41;2.33;;;0.90;;
12177;SDS011;6152;48.728;9.256;2023-11-21T01:30:08;4.38;;;0.90;;
12177;SDS011;6152;48.728;9.256;2023-11-21T01:32:37;2.33;;;0.82;;
12177;SDS011;6152;48.728;9.256;2023-11-21T01:35:04;3.88;;;1.08;;
12177;SDS011;6152;48.728;9.256;2023-11-21T01:37:31;5.03;;;0.90;;
12177;SDS011;6152;48.728;9.256;2023-11-21T01:39:58;2.15;;;0.63;;
12177;SDS011;6152;48.728;9.256;2023-11-21T01:42:26;3.65;;;0.88;;
12177;SDS011;6152;48.728;9.256;2023-11-21T01:44:54;4.80;;;1.17;;
12177;SDS011;6152;48.728;9.256;2023-11-21T01:47:20;1.48;;;0.60;;
12177;SDS011;6152;48.728;9.256;2023-11-21T01:49:46;2.42;;;0.70;;
12177;SDS011;6152;48.728;9.256;2023-11-21T01:52:13;1.70;;;0.82;;
12177;SDS011;6152;48.728;9.256;2023-11-21T01:54:39;1.67;;;0.63;;
12177;SDS011;6152;48.728;9.256;2023-11-21T01:57:07;2.13;;;0.47;;
12177;SDS011;6152;48.728;9.256;2023-11-21T01:59:34;3.65;;;0.70;;
12177;SDS011;6152;48.728;9.256;2023-11-21T02:02:05;2.10;;;1.02;;
12177;SDS011;6152;48.728;9.256;2023-11-21T02:04:35;3.97;;;0.70;;
12177;SDS011;6152;48.728;9.256;2023-11-21T02:07:02;4.72;;;1.00;;
12177;SDS011;6152;48.728;9.256;2023-11-21T02:09:30;3.40;;;0.60;;
12177;SDS011;6152;48.728;9.256;2023-11-21T02:11:59;2.25;;;0.90;;
12177;SDS011;6152;48.728;9.256;2023-11-21T02:14:26;4.75;;;0.82;;
12177;SDS011;6152;48.728;9.256;2023-11-21T02:16:53;3.47;;;0.93;;
12177;SDS011;6152;48.728;9.256;2023-11-21T02:19:21;0.73;;;0.50;;
12177;SDS011;6152;48.728;9.256;2023-11-21T02:21:50;1.50;;;0.50;;
12177;SDS011;6152;48.728;9.256;2023-11-21T02:24:23;1.25;;;0.57;;
12177;SDS011;6152;48.728;9.256;2023-11-21T02:26:49;2.90;;;0.60;;
12177;SDS011;6152;48.728;9.256;2023-11-21T02:29:17;1.58;;;0.50;;
12177;SDS011;6152;48.728;9.256;2023-11-21T02:31:55;2.95;;;0.70;;
12177;SDS011;6152;48.728;9.256;2023-11-21T02:34:22;1.38;;;0.38;;
12177;SDS011;6152;48.728;9.256;2023-11-21T02:36:50;0.50;;;0.50;;
12177;SDS011;6152;48.728;9.256;2023-11-21T02:39:16;2.22;;;0.50;;
12177;SDS011;6152;48.728;9.256;2023-11-21T02:41:43;2.58;;;0.52;;
12177;SDS011;6152;48.728;9.256;2023-11-21T02:44:09;2.85;;;0.63;;
12177;SDS011;6152;48.728;9.256;2023-11-21T02:46:36;1.27;;;0.70;;
12177;SDS011;6152;48.728;9.256;2023-11-21T02:49:05;2.88;;;0.40;;
12177;SDS011;6152;48.728;9.256;2023-11-21T02:51:32;1.33;;;0.60;;
12177;SDS011;6152;48.728;9.256;2023-11-21T02:53:58;2.83;;;0.50;;
12177;SDS011;6152;48.728;9.256;2023-11-21T02:56:27;1.95;;;0.50;;
12177;SDS011;6152;48.728;9.256;2023-11-21T02:58:55;2.28;;;0.50;;
12177;SDS011;6152;48.728;9.256;2023-11-21T03:01:22;2.65;;;0.50;;
12177;SDS011;6152;48.728;9.256;2023-11-21T03:03:51;2.85;;;0.55;;
12177;SDS011;6152;48.728;9.256;2023-11-21T03:06:18;2.05;;;0.40;;
12177;SDS011;6152;48.728;9.256;2023-11-21T03:08:44;1.45;;;0.50;;
12177;SDS011;6152;48.728;9.256;2023-11-21T03:11:11;1.90;;;0.40;;
12177;SDS011;6152;48.728;9.256;2023-11-21T03:13:40;2.40;;;0.50;;
12177;SDS011;6152;48.728;9.256;2023-11-21T03:16:09;3.75;;;0.57;;
12177;SDS011;6152;48.728;9.256;2023-11-21T03:18:36;2.90;;;0.50;;
12177;SDS011;6152;48.728;9.256;2023-11-21T03:21:03;2.22;;;0.50;;
12177;SDS011;6152;48.728;9.256;2023-11-21T03:23:30;2.95;;;0.50;;
12177;SDS011;6152;48.728;9.256;2023-11-21T03:25:56;0.32;;;0.32;;
12177;SDS011;6152;48.728;9.256;2023-11-21T03:28:24;3.22;;;0.40;;
12177;SDS011;6152;48.728;9.256;2023-11-21T03:30:52;1.40;;;0.40;;
12177;SDS011;6152;48.728;9.256;2023-11-21T03:33:18;0.82;;;0.30;;
12177;SDS011;6152;48.728;9.256;2023-11-21T03:35:44;0.93;;;0.40;;
12177;SDS011;6152;48.728;9.256;2023-11-21T03:38:11;2.60;;;0.50;;
12177;SDS011;6152;48.728;9.256;2023-11-21T03:40:37;0.65;;;0.25;;
12177;SDS011;6152;48.728;9.256;2023-11-21T03:43:04;1.48;;;0.40;;
12177;SDS011;6152;48.728;9.256;2023-11-21T03:45:31;2.38;;;0.32;;
12177;SDS011;6152;48.728;9.256;2023-11-21T03:47:57;1.52;;;0.43;;
12177;SDS011;6152;48.728;9.256;2023-11-21T03:50:24;1.77;;;0.50;;
12177;SDS011;6152;48.728;9.256;2023-11-21T03:52:50;1.83;;;0.30;;
12177;SDS011;6152;48.728;9.256;2023-11-21T03:55:16;1.17;;;0.50;;
12177;SDS011;6152;48.728;9.256;2023-11-21T03:57:42;1.15;;;0.60;;
12177;SDS011;6152;48.728;9.256;2023-11-21T04:00:08;1.25;;;0.40;;
12177;SDS011;6152;48.728;9.256;2023-11-21T04:02:35;1.67;;;0.32;;
12177;SDS011;6152;48.728;9.256;2023-11-21T04:05:01;1.58;;;0.30;;
12177;SDS011;6152;48.728;9.256;2023-11-21T04:07:28;0.70;;;0.30;;
12177;SDS011;6152;48.728;9.256;2023-11-21T04:09:54;1.50;;;0.40;;
12177;SDS011;6152;48.728;9.256;2023-11-21T04:12:20;1.25;;;0.30;;
12177;SDS011;6152;48.728;9.256;2023-11-21T04:14:46;1.42;;;0.40;;
12177;SDS011;6152;48.728;9.256;2023-11-21T04:17:13;0.65;;;0.30;;
12177;SDS011;6152;48.728;9.256;2023-11-21T04:19:39;0.30;;;0.20;;
12177;SDS011;6152;48.728;9.256;2023-11-21T04:22:05;1.00;;;0.20;;
12177;SDS011;6152;48.728;9.256;2023-11-21T04:24:32;0.93;;;0.20;;
12177;SDS011;6152;48.728;9.256;2023-11-21T04:26:58;0.57;;;0.10;;
12177;SDS011;6152;48.728;9.256;2023-11-21T04:29:24;0.50;;;0.20;;
12177;SDS011;6152;48.728;9.256;2023-11-21T04:31:50;0.57;;;0.20;;
12177;SDS011;6152;48.728;9.256;2023-11-21T04:34:16;1.33;;;0.20;;
12177;SDS011;6152;48.728;9.256;2023-11-21T04:36:42;0.80;;;0.20;;
12177;SDS011;6152;48.728;9.256;2023-11-21T04:39:08;1.83;;;0.43;;
12177;SDS011;6152;48.728;9.256;2023-11-21T04:41:34;0.30;;;0.13;;
12177;SDS011;6152;48.728;9.256;2023-11-21T04:44:01;1.27;;;0.10;;
12177;SDS011;6152;48.728;9.256;2023-11-21T04:46:27;0.55;;;0.10;;
12177;SDS011;6152;48.728;9.256;2023-11-21T04:48:53;0.15;;;0.15;;
12177;SDS011;6152;48.728;9.256;2023-11-21T04:51:19;1.20;;;0.20;;
12177;SDS011;6152;48.728;9.256;2023-11-21T04:53:46;0.75;;;0.10;;
12177;SDS011;6152;48.728;9.256;2023-11-21T04:56:12;0.30;;;0.10;;
12177;SDS011;6152;48.728;9.256;2023-11-21T04:58:38;1.20;;;0.25;;
12177;SDS011;6152;48.728;9.256;2023-11-21T05:01:05;0.90;;;0.70;;
12177;SDS011;6152;48.728;9.256;2023-11-21T05:03:32;1.35;;;0.20;;
12177;SDS011;6152;48.728;9.256;2023-11-21T05:05:59;1.90;;;0.30;;
12177;SDS011;6152;48.728;9.256;2023-11-21T05:08:25;0.32;;;0.10;;
12177;SDS011;6152;48.728;9.256;2023-11-21T05:10:52;1.02;;;0.20;;
12177;SDS011;6152;48.728;9.256;2023-11-21T05:13:18;0.47;;;0.20;;
12177;SDS011;6152;48.728;9.256;2023-11-21T05:15:45;0.20;;;0.20;;
12177;SDS011;6152;48.728;9.256;2023-11-21T05:18:11;2.55;;;0.25;;
12177;SDS011;6152;48.728;9.256;2023-11-21T05:20:41;1.33;;;0.20;;
12177;SDS011;6152;48.728;9.256;2023-11-21T05:23:07;0.32;;;0.20;;
12177;SDS011;6152;48.728;9.256;2023-11-21T05:25:33;1.45;;;0.20;;
12177;SDS011;6152;48.728;9.256;2023-11-21T05:28:00;0.25;;;0.25;;
12177;SDS011;6152;48.728;9.256;2023-11-21T05:30:27;0.60;;;0.10;;
12177;SDS011;6152;48.728;9.256;2023-11-21T05:32:53;0.98;;;0.15;;
12177;SDS011;6152;48.728;9.256;2023-11-21T05:35:20;1.02;;;0.13;;
12177;SDS011;6152;48.728;9.256;2023-11-21T05:37:46;0.85;;;0.20;;
12177;SDS011;6152;48.728;9.256;2023-11-21T05:40:12;0.20;;;0.10;;
12177;SDS011;6152;48.728;9.256;2023-11-21T05:42:39;0.30;;;0.20;;
12177;SDS011;6152;48.728;9.256;2023-11-21T05:45:06;1.10;;;0.20;;
12177;SDS011;6152;48.728;9.256;2023-11-21T05:47:54;0.10;;;0.10;;
12177;SDS011;6152;48.728;9.256;2023-11-21T05:50:20;0.30;;;0.10;;
12177;SDS011;6152;48.728;9.256;2023-11-21T05:52:47;1.88;;;0.20;;
12177;SDS011;6152;48.728;9.256;2023-11-21T05:55:13;0.40;;;0.10;;
12177;SDS011;6152;48.728;9.256;2023-11-21T05:57:41;0.20;;;0.10;;
12177;SDS011;6152;48.728;9.256;2023-11-21T06:00:09;0.20;;;0.20;;
12177;SDS011;6152;48.728;9.256;2023-11-21T06:02:45;0.20;;;0.10;;
12177;SDS011;6152;48.728;9.256;2023-11-21T06:05:16;0.15;;;0.15;;
12177;SDS011;6152;48.728;9.256;2023-11-21T06:07:43;1.67;;;0.15;;
12177;SDS011;6152;48.728;9.256;2023-11-21T06:10:10;1.23;;;0.20;;
12177;SDS011;6152;48.728;9.256;2023-11-21T06:12:39;1.17;;;0.20;;
12177;SDS011;6152;48.728;9.256;2023-11-21T06:15:08;0.55;;;0.20;;
12177;SDS011;6152;48.728;9.256;2023-11-21T06:17:38;0.60;;;0.17;;
12177;SDS011;6152;48.728;9.256;2023-11-21T06:20:05;0.50;;;0.20;;
12177;SDS011;6152;48.728;9.256;2023-11-21T06:22:39;1.88;;;0.30;;
12177;SDS011;6152;48.728;9.256;2023-11-21T06:25:09;0.63;;;0.20;;
12177;SDS011;6152;48.728;9.256;2023-11-21T06:27:38;1.02;;;0.20;;
12177;SDS011;6152;48.728;9.256;2023-11-21T06:30:07;0.75;;;0.30;;
12177;SDS011;6152;48.728;9.256;2023-11-21T06:32:34;0.30;;;0.20;;
12177;SDS011;6152;48.728;9.256;2023-11-21T06:35:02;2.00;;;0.20;;
12177;SDS011;6152;48.728;9.256;2023-11-21T06:37:29;1.95;;;0.55;;
12177;SDS011;6152;48.728;9.256;2023-11-21T06:39:57;1.35;;;0.30;;
12177;SDS011;6152;48.728;9.256;2023-11-21T06:42:24;2.10;;;0.50;;
12177;SDS011;6152;48.728;9.256;2023-11-21T06:44:50;1.50;;;0.47;;
12177;SDS011;6152;48.728;9.256;2023-11-21T06:47:18;0.50;;;0.50;;
12177;SDS011;6152;48.728;9.256;2023-11-21T06:49:45;1.13;;;0.30;;
12177;SDS011;6152;48.728;9.256;2023-11-21T06:52:15;0.68;;;0.30;;
12177;SDS011;6152;48.728;9.256;2023-11-21T06:54:41;1.40;;;0.35;;
12177;SDS011;6152;48.728;9.256;2023-11-21T06:57:07;0.38;;;0.38;;
12177;SDS011;6152;48.728;9.256;2023-11-21T06:59:33;1.45;;;0.30;;
12177;SDS011;6152;48.728;9.256;2023-11-21T07:02:00;1.05;;;0.50;;
12177;SDS011;6152;48.728;9.256;2023-11-21T07:04:26;1.00;;;0.20;;
12177;SDS011;6152;48.728;9.256;2023-11-21T07:06:55;0.40;;;0.40;;
12177;SDS011;6152;48.728;9.256;2023-11-21T07:09:21;0.35;;;0.30;;
12177;SDS011;6152;48.728;9.256;2023-11-21T07:11:48;0.52;;;0.30;;
12177;SDS011;6152;48.728;9.256;2023-11-21T07:14:17;3.42;;;0.52;;
12177;SDS011;6152;48.728;9.256;2023-11-21T07:16:44;0.82;;;0.40;;
12177;SDS011;6152;48.728;9.256;2023-11-21T07:19:11;1.38;;;0.80;;
12177;SDS011;6152;48.728;9.256;2023-11-21T07:21:38;2.35;;;0.60;;
12177;SDS011;6152;48.728;9.256;2023-11-21T07:24:05;0.65;;;0.40;;
12177;SDS011;6152;48.728;9.256;2023-11-21T07:26:32;0.52;;;0.40;;
12177;SDS011;6152;48.728;9.256;2023-11-21T07:28:59;1.60;;;0.43;;
12177;SDS011;6152;48.728;9.256;2023-11-21T07:31:26;1.75;;;0.60;;
12177;SDS011;6152;48.728;9.256;2023-11-21T07:33:52;3.38;;;0.38;;
12177;SDS011;6152;48.728;9.256;2023-11-21T07:36:21;2.45;;;0.90;;
12177;SDS011;6152;48.728;9.256;2023-11-21T07:38:47;1.40;;;0.63;;
12177;SDS011;6152;48.728;9.256;2023-11-21T07:41:14;1.90;;;0.50;;
12177;SDS011;6152;48.728;9.256;2023-11-21T07:43:40;0.40;;;0.40;;
12177;SDS011;6152;48.728;9.256;2023-11-21T07:46:07;1.00;;;0.45;;
12177;SDS011;6152;48.728;9.256;2023-11-21T07:48:33;1.65;;;0.73;;
12177;SDS011;6152;48.728;9.256;2023-11-21T07:51:00;3.17;;;0.60;;
12177;SDS011;6152;48.728;9.256;2023-11-21T07:53:28;1.17;;;0.80;;
12177;SDS011;6152;48.728;9.256;2023-11-21T07:55:58;0.68;;;0.50;;
12177;SDS011;6152;48.728;9.256;2023-11-21T07:58:28;0.80;;;0.70;;
12177;SDS011;6152;48.728;9.256;2023-11-21T08:00:54;3.00;;;0.73;;
12177;SDS011;6152;48.728;9.256;2023-11-21T08:03:20;0.90;;;0.63;;
12177;SDS011;6152;48.728;9.256;2023-11-21T08:05:46;1.83;;;0.60;;
12177;SDS011;6152;48.728;9.256;2023-11-21T08:08:12;2.58;;;0.70;;
12177;SDS011;6152;48.728;9.256;2023-11-21T08:10:39;1.50;;;0.70;;
12177;SDS011;6152;48.728;9.256;2023-11-21T08:13:07;2.70;;;0.63;;
12177;SDS011;6152;48.728;9.256;2023-11-21T08:15:34;0.52;;;0.52;;
12177;SDS011;6152;48.728;9.256;2023-11-21T08:18:02;1.70;;;0.75;;
12177;SDS011;6152;48.728;9.256;2023-11-21T08:20:32;1.13;;;0.55;;
12177;SDS011;6152;48.728;9.256;2023-11-21T08:23:01;0.68;;;0.55;;
12177;SDS011;6152;48.728;9.256;2023-11-21T08:25:30;1.75;;;0.80;;
12177;SDS011;6152;48.728;9.256;2023-11-21T08:27:58;2.45;;;0.90;;
12177;SDS011;6152;48.728;9.256;2023-11-21T08:30:24;3.40;;;0.75;;
12177;SDS011;6152;48.728;9.256;2023-11-21T08:32:52;0.73;;;0.70;;
12177;SDS011;6152;48.728;9.256;2023-11-21T08:35:19;1.52;;;0.75;;
12177;SDS011;6152;48.728;9.256;2023-11-21T08:37:45;2.92;;;1.00;;
12177;SDS011;6152;48.728;9.256;2023-11-21T08:40:11;0.80;;;0.80;;
12177;SDS011;6152;48.728;9.256;2023-11-21T08:42:41;0.98;;;0.65;;
12177;SDS011;6152;48.728;9.256;2023-11-21T08:45:08;0.63;;;0.57;;
12177;SDS011;6152;48.728;9.256;2023-11-21T08:47:34;1.63;;;0.60;;
12177;SDS011;6152;48.728;9.256;2023-11-21T08:50:01;1.58;;;0.68;;
12177;SDS011;6152;48.728;9.256;2023-11-21T08:52:32;0.88;;;0.88;;
12177;SDS011;6152;48.728;9.256;2023-11-21T08:54:59;1.02;;;0.93;;
12177;SDS011;6152;48.728;9.256;2023-11-21T08:57:32;0.88;;;0.80;;
12177;SDS011;6152;48.728;9.256;2023-11-21T09:00:00;1.20;;;0.82;;
12177;SDS011;6152;48.728;9.256;2023-11-21T09:02:26;2.83;;;1.33;;
12177;SDS011;6152;48.728;9.256;2023-11-21T09:04:52;2.50;;;1.17;;
12177;SDS011;6152;48.728;9.256;2023-11-21T09:07:19;1.85;;;1.30;;
12177;SDS011;6152;48.728;9.256;2023-11-21T09:09:46;2.30;;;1.13;;
12177;SDS011;6152;48.728;9.256;2023-11-21T09:12:13;2.17;;;1.10;;
12177;SDS011;6152;48.728;9.256;2023-11-21T09:14:39;4.93;;;1.25;;
12177;SDS011;6152;48.728;9.256;2023-11-21T09:17:05;1.50;;;0.82;;
12177;SDS011;6152;48.728;9.256;2023-11-21T09:19:37;1.70;;;0.98;;
12177;SDS011;6152;48.728;9.256;2023-11-21T09:22:03;1.02;;;0.50;;
12177;SDS011;6152;48.728;9.256;2023-11-21T09:24:30;1.70;;;0.85;;
12177;SDS011;6152;48.728;9.256;2023-11-21T09:26:57;1.55;;;0.50;;
12177;SDS011;6152;48.728;9.256;2023-11-21T09:29:23;1.95;;;0.70;;
12177;SDS011;6152;48.728;9.256;2023-11-21T09:31:49;0.30;;;0.30;;
12177;SDS011;6152;48.728;9.256;2023-11-21T09:34:16;0.25;;;0.25;;
12177;SDS011;6152;48.728;9.256;2023-11-21T09:36:46;1.02;;;0.30;;
12177;SDS011;6152;48.728;9.256;2023-11-21T09:39:13;1.15;;;0.30;;
12177;SDS011;6152;48.728;9.256;2023-11-21T09:41:43;0.50;;;0.35;;
12177;SDS011;6152;48.728;9.256;2023-11-21T09:44:14;2.83;;;0.50;;
12177;SDS011;6152;48.728;9.256;2023-11-21T09:46:47;0.80;;;0.30;;
12177;SDS011;6152;48.728;9.256;2023-11-21T09:49:14;1.05;;;0.30;;
12177;SDS011;6152;48.728;9.256;2023-11-21T09:51:44;0.50;;;0.22;;
12177;SDS011;6152;48.728;9.256;2023-11-21T09:54:11;0.43;;;0.30;;
12177;SDS011;6152;48.728;9.256;2023-11-21T09:56:40;0.80;;;0.32;;
12177;SDS011;6152;48.728;9.256;2023-11-21T09:59:07;1.75;;;0.40;;
12177;SDS011;6152;48.728;9.256;2023-11-21T10:01:38;1.15;;;0.32;;
12177;SDS011;6152;48.728;9.256;2023-11-21T10:04:07;1.10;;;0.40;;
12177;SDS011;6152;48.728;9.256;2023-11-21T10:06:39;0.73;;;0.30;;
12177;SDS011;6152;48.728;9.256;2023-11-21T10:09:10;0.50;;;0.30;;
12177;SDS011;6152;48.728;9.256;2023-11-21T10:11:42;1.00;;;0.40;;
12177;SDS011;6152;48.728;9.256;2023-11-21T10:14:12;0.32;;;0.32;;
12177;SDS011;6152;48.728;9.256;2023-11-21T10:16:40;3.95;;;0.30;;
12177;SDS011;6152;48.728;9.256;2023-11-21T10:19:09;0.60;;;0.40;;
12177;SDS011;6152;48.728;9.256;2023-11-21T10:21:38;2.00;;;0.35;;
12177;SDS011;6152;48.728;9.256;2023-11-21T10:24:05;0.57;;;0.45;;
12177;SDS011;6152;48.728;9.256;2023-11-21T10:26:31;0.90;;;0.70;;
12177;SDS011;6152;48.728;9.256;2023-11-21T10:28:59;0.73;;;0.65;;
12177;SDS011;6152;48.728;9.256;2023-11-21T10:31:28;1.52;;;1.33;;
12177;SDS011;6152;48.728;9.256;2023-11-21T10:34:16;0.68;;;0.68;;
12177;SDS011;6152;48.728;9.256;2023-11-21T10:36:44;0.30;;;0.30;;
12177;SDS011;6152;48.728;9.256;2023-11-21T10:39:14;0.50;;;0.50;;
12177;SDS011;6152;48.728;9.256;2023-11-21T10:41:43;1.15;;;0.52;;
12177;SDS011;6152;48.728;9.256;2023-11-21T10:44:16;0.98;;;0.40;;
12177;SDS011;6152;48.728;9.256;2023-11-21T10:46:49;0.98;;;0.40;;
12177;SDS011;6152;48.728;9.256;2023-11-21T10:49:22;1.20;;;0.40;;
12177;SDS011;6152;48.728;9.256;2023-11-21T10:51:50;0.50;;;0.40;;
12177;SDS011;6152;48.728;9.256;2023-11-21T10:54:20;0.40;;;0.40;;
12177;SDS011;6152;48.728;9.256;2023-11-21T10:56:53;0.43;;;0.40;;
12177;SDS011;6152;48.728;9.256;2023-11-21T10:59:24;1.27;;;0.40;;
12177;SDS011;6152;48.728;9.256;2023-11-21T11:01:53;0.77;;;0.40;;
12177;SDS011;6152;48.728;9.256;2023-11-21T11:04:22;0.52;;;0.40;;
12177;SDS011;6152;48.728;9.256;2023-11-21T11:07:01;1.05;;;0.60;;
12177;SDS011;6152;48.728;9.256;2023-11-21T11:09:28;3.42;;;2.80;;
12177;SDS011;6152;48.728;9.256;2023-11-21T11:11:59;1.13;;;0.90;;
12177;SDS011;6152;48.728;9.256;2023-11-21T11:14:27;0.80;;;0.80;;
12177;SDS011;6152;48.728;9.256;2023-11-21T11:16:53;0.38;;;0.38;;
12177;SDS011;6152;48.728;9.256;2023-11-21T11:19:20;1.08;;;0.22;;
12177;SDS011;6152;48.728;9.256;2023-11-21T11:27:30;0.60;;;0.40;;
12177;SDS011;6152;48.728;9.256;2023-11-21T11:30:11;0.80;;;0.50;;
12177;SDS011;6152;48.728;9.256;2023-11-21T11:38:45;0.90;;;0.50;;
12177;SDS011;6152;48.728;9.256;2023-11-21T11:41:11;0.82;;;0.73;;
12177;SDS011;6152;48.728;9.256;2023-11-21T11:43:37;1.23;;;0.98;;
12177;SDS011;6152;48.728;9.256;2023-11-21T11:46:12;1.13;;;0.73;;
12177;SDS011;6152;48.728;9.256;2023-11-21T11:48:39;2.05;;;1.05;;
12177;SDS011;6152;48.728;9.256;2023-11-21T11:51:10;0.95;;;0.65;;
12177;SDS011;6152;48.728;9.256;2023-11-21T11:53:40;0.50;;;0.40;;
12177;SDS011;6152;48.728;9.256;2023-11-21T11:56:26;0.38;;;0.38;;
12177;SDS011;6152;48.728;9.256;2023-11-21T11:58:56;0.98;;;0.55;;
12177;SDS011;6152;48.728;9.256;2023-11-21T12:01:25;0.60;;;0.60;;
12177;SDS011;6152;48.728;9.256;2023-11-21T12:06:40;0.88;;;0.77;;
12177;SDS011;6152;48.728;9.256;2023-11-21T12:09:07;2.33;;;0.68;;
12177;SDS011;6152;48.728;9.256;2023-11-21T12:11:43;0.70;;;0.57;;
12177;SDS011;6152;48.728;9.256;2023-11-21T12:14:09;2.67;;;0.80;;
12177;SDS011;6152;48.728;9.256;2023-11-21T12:16:36;0.80;;;0.70;;
12177;SDS011;6152;48.728;9.256;2023-11-21T12:19:02;1.55;;;0.70;;
12177;SDS011;6152;48.728;9.256;2023-11-21T12:21:28;1.40;;;0.60;;
12177;SDS011;6152;48.728;9.256;2023-11-21T12:23:57;1.00;;;0.85;;
12177;SDS011;6152;48.728;9.256;2023-11-21T12:26:26;2.70;;;1.25;;
12177;SDS011;6152;48.728;9.256;2023-11-21T12:28:53;1.42;;;1.30;;
12177;SDS011;6152;48.728;9.256;2023-11-21T12:31:22;1.10;;;1.05;;
12177;SDS011;6152;48.728;9.256;2023-11-21T12:33:48;1.67;;;1.58;;
12177;SDS011;6152;48.728;9.256;2023-11-21T12:36:15;1.70;;;1.60;;
12177;SDS011;6152;48.728;9.256;2023-11-21T12:38:42;3.45;;;1.83;;
12177;SDS011;6152;48.728;9.256;2023-11-21T12:41:11;2.25;;;1.77;;
12177;SDS011;6152;48.728;9.256;2023-11-21T12:43:37;2.45;;;1.80;;
12177;SDS011;6152;48.728;9.256;2023-11-21T12:46:05;1.90;;;1.80;;
12177;SDS011;6152;48.728;9.256;2023-11-21T12:48:32;2.20;;;1.98;;
12177;SDS011;6152;48.728;9.256;2023-11-21T12:50:58;1.75;;;1.65;;
12177;SDS011;6152;48.728;9.256;2023-11-21T12:53:27;2.63;;;1.70;;
12177;SDS011;6152;48.728;9.256;2023-11-21T12:56:01;2.25;;;1.80;;
12177;SDS011;6152;48.728;9.256;2023-11-21T12:58:31;2.35;;;1.85;;
12177;SDS011;6152;48.728;9.256;2023-11-21T13:00:58;3.13;;;2.00;;
12177;SDS011;6152;48.728;9.256;2023-11-21T13:03:25;2.10;;;1.90;;
12177;SDS011;6152;48.728;9.256;2023-11-21T13:05:51;3.65;;;2.15;;
12177;SDS011;6152;48.728;9.256;2023-11-21T13:08:20;3.03;;;2.40;;
12177;SDS011;6152;48.728;9.256;2023-11-21T13:10:54;3.35;;;2.55;;
12177;SDS011;6152;48.728;9.256;2023-11-21T13:13:21;3.80;;;2.40;;
12177;SDS011;6152;48.728;9.256;2023-11-21T13:18:23;2.00;;;1.75;;
12177;SDS011;6152;48.728;9.256;2023-11-21T13:20:52;2.08;;;1.90;;
12177;SDS011;6152;48.728;9.256;2023-11-21T13:23:20;4.95;;;1.83;;
12177;SDS011;6152;48.728;9.256;2023-11-21T13:25:47;3.58;;;1.23;;
12177;SDS011;6152;48.728;9.256;2023-11-21T13:28:15;1.60;;;1.40;;
12177;SDS011;6152;48.728;9.256;2023-11-21T13:30:43;1.88;;;1.70;;
12177;SDS011;6152;48.728;9.256;2023-11-21T13:33:09;1.80;;;1.40;;
12177;SDS011;6152;48.728;9.256;2023-11-21T13:35:42;1.40;;;1.05;;
12177;SDS011;6152;48.728;9.256;2023-11-21T13:38:14;1.70;;;1.17;;
12177;SDS011;6152;48.728;9.256;2023-11-21T13:40:42;1.60;;;1.25;;
12177;SDS011;6152;48.728;9.256;2023-11-21T13:43:19;1.40;;;1.30;;
12177;SDS011;6152;48.728;9.256;2023-11-21T13:45:50;4.05;;;1.48;;
12177;SDS011;6152;48.728;9.256;2023-11-21T13:48:25;1.83;;;1.60;;
12177;SDS011;6152;48.728;9.256;2023-11-21T13:50:59;2.28;;;1.60;;
12177;SDS011;6152;48.728;9.256;2023-11-21T13:53:45;2.05;;;1.05;;
12177;SDS011;6152;48.728;9.256;2023-11-21T13:56:17;1.85;;;0.80;;
12177;SDS011;6152;48.728;9.256;2023-11-21T13:58:51;0.75;;;0.75;;
12177;SDS011;6152;48.728;9.256;2023-11-21T14:01:19;0.70;;;0.70;;
12177;SDS011;6152;48.728;9.256;2023-11-21T14:03:58;1.00;;;0.90;;
12177;SDS011;6152;48.728;9.256;2023-11-21T14:06:42;2.30;;;1.10;;
12177;SDS011;6152;48.728;9.256;2023-11-21T14:09:15;2.22;;;1.02;;
12177;SDS011;6152;48.728;9.256;2023-11-21T14:11:51;1.30;;;1.20;;
12177;SDS011;6152;48.728;9.256;2023-11-21T14:14:23;1.48;;;1.38;;
12177;SDS011;6152;48.728;9.256;2023-11-21T14:16:51;2.40;;;1.63;;
12177;SDS011;6152;48.728;9.256;2023-11-21T14:19:18;1.70;;;1.42;;
12177;SDS011;6152;48.728;9.256;2023-11-21T14:21:45;1.73;;;1.63;;
12177;SDS011;6152;48.728;9.256;2023-11-21T14:24:11;1.83;;;1.73;;
12177;SDS011;6152;48.728;9.256;2023-11-21T14:26:42;1.42;;;1.40;;
12177;SDS011;6152;48.728;9.256;2023-11-21T14:29:11;2.40;;;2.15;;
12177;SDS011;6152;48.728;9.256;2023-11-21T14:31:44;2.15;;;1.88;;
12177;SDS011;6152;48.728;9.256;2023-11-21T14:34:11;1.90;;;1.73;;
12177;SDS011;6152;48.728;9.256;2023-11-21T14:36:39;1.95;;;1.80;;
12177;SDS011;6152;48.728;9.256;2023-11-21T14:39:06;1.83;;;1.70;;
12177;SDS011;6152;48.728;9.256;2023-11-21T14:41:36;2.80;;;1.92;;
12177;SDS011;6152;48.728;9.256;2023-11-21T14:44:03;2.33;;;2.13;;
12177;SDS011;6152;48.728;9.256;2023-11-21T14:46:32;1.92;;;1.70;;
12177;SDS011;6152;48.728;9.256;2023-11-21T14:49:00;5.28;;;2.47;;
12177;SDS011;6152;48.728;9.256;2023-11-21T14:51:44;2.97;;;2.28;;
12177;SDS011;6152;48.728;9.256;2023-11-21T14:54:32;3.05;;;2.17;;
12177;SDS011;6152;48.728;9.256;2023-11-21T14:57:14;2.67;;;2.13;;
12177;SDS011;6152;48.728;9.256;2023-11-21T14:59:47;2.03;;;1.90;;
12177;SDS011;6152;48.728;9.256;2023-11-21T15:02:19;3.13;;;2.40;;
12177;SDS011;6152;48.728;9.256;2023-11-21T15:04:47;2.45;;;2.10;;
12177;SDS011;6152;48.728;9.256;2023-11-21T15:07:17;1.90;;;1.80;;
12177;SDS011;6152;48.728;9.256;2023-11-21T15:09:43;4.63;;;2.60;;
12177;SDS011;6152;48.728;9.256;2023-11-21T15:12:10;2.13;;;1.92;;
12177;SDS011;6152;48.728;9.256;2023-11-21T15:14:44;1.90;;;1.77;;
12177;SDS011;6152;48.728;9.256;2023-11-21T15:17:12;2.70;;;1.50;;
12177;SDS011;6152;48.728;9.256;2023-11-21T15:19:55;3.63;;;2.08;;
12177;SDS011;6152;48.728;9.256;2023-11-21T15:22:22;3.60;;;1.70;;
12177;SDS011;6152;48.728;9.256;2023-11-21T15:24:48;2.03;;;1.77;;